Time;durP1;ratioP1;P1;durP2;ratioP2;P2;SDS_P1;SDS_P2;PMS_P1;PMS_P2;Temp;Humidity;BMP_temperature;BMP_pressure;BME280_temperature;BME280_humidity;BME280_pressure;Samples;Min_cycle;Max_cycle;Signal;HPM_P1;HPM_P2
2023/10/03 00:00:59;;;;;;;6.53;4.60;;;;;;;21.49;66.75;99181.03;5091572;28;20024;-45
2023/10/03 00:03:26;;;;;;;12.77;5.53;;;;;;;21.45;66.44;99182.63;5091673;28;20032;-44
2023/10/03 00:05:51;;;;;;;8.15;4.68;;;;;;;21.32;67.38;99184.66;5091647;28;20085;-44
2023/10/03 00:08:18;;;;;;;13.43;5.88;;;;;;;21.24;68.04;99179.81;5090275;28;20020;-44
2023/10/03 00:10:45;;;;;;;9.52;6.03;;;;;;;21.12;68.04;99187.22;5090251;28;20118;-45
2023/10/03 00:13:12;;;;;;;8.65;5.93;;;;;;;21.26;68.42;99185.69;5092001;28;20044;-45
2023/10/03 00:15:43;;;;;;;9.43;5.38;;;;;;;21.26;68.03;99176.88;5094087;28;20103;-45
2023/10/03 00:18:13;;;;;;;10.65;6.22;;;;;;;21.21;69.62;99180.34;5095515;28;20016;-45
2023/10/03 00:20:39;;;;;;;8.25;4.65;;;;;;;21.11;69.60;99177.63;5094434;28;20486;-45
2023/10/03 00:23:05;;;;;;;7.68;6.00;;;;;;;21.06;70.12;99173.03;5094280;28;20027;-45
2023/10/03 00:25:31;;;;;;;9.55;5.40;;;;;;;20.97;70.78;99177.25;5093978;28;20036;-45
2023/10/03 00:27:59;;;;;;;7.57;6.22;;;;;;;20.84;71.36;99181.13;5094056;28;20024;-45
2023/10/03 00:30:26;;;;;;;8.30;6.13;;;;;;;20.83;71.76;99162.75;5095182;28;20020;-44
2023/10/03 00:33:02;;;;;;;9.40;6.78;;;;;;;20.82;72.30;99161.91;5093806;28;20020;-45
2023/10/03 00:35:28;;;;;;;7.82;5.57;;;;;;;20.83;72.93;99163.53;5095331;28;20385;-45
2023/10/03 00:37:54;;;;;;;10.30;6.35;;;;;;;20.83;72.44;99150.19;5093759;28;20028;-44
2023/10/03 00:43:01;;;;;;;8.88;6.80;;;;;;;20.67;73.76;99159.94;5095297;28;20055;-45
2023/10/03 00:45:31;;;;;;;15.07;7.55;;;;;;;20.61;73.91;99152.97;5095196;28;20397;-45
2023/10/03 00:48:11;;;;;;;9.68;6.90;;;;;;;20.67;73.90;99165.28;5094837;28;20103;-45
2023/10/03 00:50:37;;;;;;;8.95;7.28;;;;;;;20.68;73.79;99158.88;5094789;28;20072;-45
2023/10/03 00:53:06;;;;;;;9.07;6.90;;;;;;;20.68;74.07;99152.75;5094728;28;20504;-44
2023/10/03 00:55:33;;;;;;;10.23;7.20;;;;;;;20.67;74.17;99156.50;5094678;28;20024;-44
2023/10/03 00:58:07;;;;;;;9.30;7.20;;;;;;;20.63;74.40;99150.06;5094773;28;20115;-45
2023/10/03 01:00:55;;;;;;;9.35;5.47;;;;;;;20.72;74.44;99135.16;5094766;28;20030;-45
2023/10/03 01:03:31;;;;;;;17.15;9.32;;;;;;;20.65;74.61;99142.59;5095197;28;20028;-44
2023/10/03 01:06:05;;;;;;;8.50;6.53;;;;;;;20.73;74.50;99126.13;5094539;28;20031;-44
2023/10/03 01:08:39;;;;;;;14.20;8.53;;;;;;;20.73;74.47;99134.13;5094821;28;20436;-44
2023/10/03 01:11:30;;;;;;;7.97;5.93;;;;;;;20.77;74.87;99123.75;5094252;28;20107;-45
2023/10/03 01:14:00;;;;;;;12.60;8.32;;;;;;;20.69;74.88;99125.81;5094246;28;20158;-45
2023/10/03 01:16:31;;;;;;;12.32;7.47;;;;;;;20.56;75.26;99123.56;5094268;28;20020;-44
2023/10/03 01:19:11;;;;;;;13.50;8.88;;;;;;;20.50;76.06;99124.56;5094574;28;20032;-44
2023/10/03 01:21:37;;;;;;;28.15;20.15;;;;;;;20.33;76.76;99125.50;5094544;28;20123;-45
2023/10/03 01:24:07;;;;;;;14.38;9.63;;;;;;;20.58;77.19;99126.75;5093050;28;20406;-45
2023/10/03 01:26:33;;;;;;;8.10;7.10;;;;;;;20.79;74.87;99132.31;5094083;28;20405;-45
2023/10/03 01:28:59;;;;;;;10.75;8.30;;;;;;;20.65;74.80;99121.25;5092807;28;20035;-45
2023/10/03 01:31:27;;;;;;;9.57;7.75;;;;;;;20.61;74.79;99120.16;5092748;28;20028;-44
2023/10/03 01:33:53;;;;;;;9.02;7.72;;;;;;;20.62;75.02;99119.09;5093992;28;20016;-44
2023/10/03 01:36:19;;;;;;;14.27;8.05;;;;;;;20.66;74.94;99115.66;5093844;28;20093;-45
2023/10/03 01:38:45;;;;;;;8.18;7.03;;;;;;;20.69;74.36;99120.50;5075892;28;20513;-45
2023/10/03 01:41:12;;;;;;;16.08;9.25;;;;;;;20.68;74.69;99120.75;5092534;28;20024;-45
2023/10/03 01:43:43;;;;;;;12.10;9.00;;;;;;;20.79;75.89;99118.97;5094063;28;20039;-45
2023/10/03 01:46:09;;;;;;;13.48;8.77;;;;;;;20.66;77.11;99112.97;5093831;28;20052;-44
2023/10/03 01:48:36;;;;;;;22.83;12.27;;;;;;;20.44;78.11;99128.25;5092414;28;20080;-45
2023/10/03 01:51:02;;;;;;;10.32;8.38;;;;;;;20.37;79.64;99128.47;5093619;28;20020;-44
2023/10/03 01:53:29;;;;;;;20.92;10.25;;;;;;;20.26;79.40;99129.44;5093535;28;20028;-44
2023/10/03 01:55:56;;;;;;;15.77;9.27;;;;;;;20.21;81.12;99119.53;5075484;28;20511;-44
2023/10/03 01:58:24;;;;;;;16.42;8.95;;;;;;;20.35;79.69;99117.25;5092230;28;20400;-45
2023/10/03 02:00:50;;;;;;;20.77;14.75;;;;;;;20.40;79.89;99119.94;5093409;28;20016;-45
2023/10/03 02:03:18;;;;;;;27.15;24.50;;;;;;;20.70;79.62;99115.94;5093418;28;20028;-45
2023/10/03 02:05:44;;;;;;;15.57;12.13;;;;;;;20.99;77.88;99111.09;5093386;28;20032;-45
2023/10/03 02:08:17;;;;;;;16.67;13.02;;;;;;;21.03;75.56;99112.19;5092296;28;20035;-45
2023/10/03 02:10:45;;;;;;;10.50;8.30;;;;;;;21.24;75.98;99115.75;5093511;28;20434;-45
2023/10/03 02:13:17;;;;;;;11.90;8.35;;;;;;;21.29;73.20;99110.44;5091736;28;20544;-45
2023/10/03 02:15:44;;;;;;;15.25;9.45;;;;;;;21.38;73.76;99107.28;5093019;28;20162;-45
2023/10/03 02:18:12;;;;;;;13.45;9.30;;;;;;;21.59;73.65;99109.00;5093380;28;20035;-45
2023/10/03 02:20:52;;;;;;;12.60;9.40;;;;;;;21.89;71.89;99097.59;5093119;28;20052;-44
2023/10/03 02:23:25;;;;;;;10.50;7.85;;;;;;;21.97;70.75;99098.09;5091770;28;20035;-44
2023/10/03 02:26:11;;;;;;;19.52;10.73;;;;;;;21.82;70.83;99104.25;5092898;28;20576;-44
2023/10/03 02:28:38;;;;;;;7.43;6.50;;;;;;;21.92;70.84;99101.59;5092931;28;20032;-44
2023/10/03 02:31:07;;;;;;;16.92;8.48;;;;;;;21.67;69.93;99094.31;5092879;28;20082;-44
2023/10/03 02:33:38;;;;;;;12.25;7.90;;;;;;;21.34;71.06;99099.75;5092803;28;20024;-44
2023/10/03 02:36:05;;;;;;;9.10;7.35;;;;;;;21.15;71.72;99096.75;5092524;28;20028;-44
2023/10/03 02:38:35;;;;;;;13.25;6.95;;;;;;;21.02;72.44;99107.09;5092708;28;20566;-44
2023/10/03 02:41:02;;;;;;;9.25;7.80;;;;;;;20.81;73.26;99106.19;5092707;28;20038;-44
2023/10/03 02:43:30;;;;;;;11.90;8.27;;;;;;;20.77;74.64;99103.22;5092692;28;20024;-45
2023/10/03 02:45:55;;;;;;;8.75;7.38;;;;;;;21.05;74.08;99101.25;5092615;28;20028;-44
2023/10/03 02:48:22;;;;;;;15.63;8.32;;;;;;;21.11;72.93;99092.22;5092539;28;20016;-44
2023/10/03 02:50:50;;;;;;;10.60;7.97;;;;;;;21.11;73.18;99095.66;5092777;28;20028;-45
2023/10/03 02:53:19;;;;;;;11.15;8.43;;;;;;;21.12;72.76;99097.25;5092519;28;20017;-45
2023/10/03 02:55:54;;;;;;;13.88;10.23;;;;;;;21.05;73.07;99099.38;5091430;28;20051;-44
2023/10/03 02:58:20;;;;;;;8.95;7.40;;;;;;;20.86;73.25;99095.53;5092512;28;20058;-44
2023/10/03 03:00:54;;;;;;;8.00;6.82;;;;;;;20.79;73.42;99097.63;5092343;28;20074;-44
2023/10/03 03:03:22;;;;;;;19.70;8.87;;;;;;;20.68;74.22;99096.72;5091179;28;20028;-44
2023/10/03 03:05:49;;;;;;;10.55;6.50;;;;;;;20.73;73.71;99097.59;5092515;28;20024;-44
2023/10/03 03:10:45;;;;;;;8.25;7.40;;;;;;;20.80;74.43;99104.56;5092445;28;20032;-45
2023/10/03 03:13:13;;;;;;;9.65;7.35;;;;;;;20.80;73.43;99092.00;5091990;28;20052;-45
2023/10/03 03:15:51;;;;;;;10.90;8.25;;;;;;;20.69;73.58;99095.69;5091970;28;20020;-45
2023/10/03 03:18:21;;;;;;;12.40;7.60;;;;;;;20.61;73.93;99094.31;5092127;28;20036;-45
2023/10/03 03:20:57;;;;;;;8.90;7.32;;;;;;;20.42;74.45;99093.03;5090763;28;20066;-44
2023/10/03 03:23:30;;;;;;;12.40;7.22;;;;;;;20.38;75.22;99105.28;5092113;28;20046;-44
2023/10/03 03:26:02;;;;;;;8.85;5.88;;;;;;;20.46;74.89;99096.81;5092060;28;20490;-45
2023/10/03 03:28:28;;;;;;;11.35;7.03;;;;;;;20.60;74.64;99098.00;5090900;28;20031;-44
2023/10/03 03:30:58;;;;;;;11.25;6.25;;;;;;;20.69;73.38;99091.16;5091960;28;20494;-45
2023/10/03 03:33:27;;;;;;;9.98;8.95;;;;;;;20.54;73.84;99077.66;5092201;28;20066;-45
2023/10/03 03:35:54;;;;;;;7.63;6.57;;;;;;;20.44;74.25;99086.41;5091786;28;20055;-45
2023/10/03 03:38:20;;;;;;;45.63;41.35;;;;;;;20.31;74.98;99081.50;5090621;28;20047;-45
2023/10/03 03:40:59;;;;;;;16.58;12.38;;;;;;;20.30;75.40;99082.56;5091841;28;20482;-44
2023/10/03 03:43:25;;;;;;;8.40;7.47;;;;;;;20.29;74.90;99092.41;5092429;28;20032;-44
2023/10/03 03:45:52;;;;;;;8.05;6.18;;;;;;;20.40;74.96;99085.28;5091816;28;20053;-45
2023/10/03 03:48:21;;;;;;;9.80;6.68;;;;;;;20.32;74.30;99091.94;5094037;28;20073;-45
2023/10/03 03:50:49;;;;;;;20.52;9.77;;;;;;;20.20;75.35;99093.13;5095999;28;20051;-45
2023/10/03 03:53:16;;;;;;;9.95;6.80;;;;;;;20.50;75.54;99101.41;5095879;28;20028;-44
2023/10/03 03:55:42;;;;;;;8.43;5.93;;;;;;;20.80;72.96;99105.34;5095735;28;20051;-44
2023/10/03 03:58:14;;;;;;;30.30;17.33;;;;;;;20.91;73.76;99106.25;5095825;28;20032;-45
2023/10/03 04:00:47;;;;;;;14.13;7.72;;;;;;;21.51;73.28;99104.94;5095853;28;20114;-44
2023/10/03 04:03:13;;;;;;;11.98;6.88;;;;;;;21.93;70.59;99106.66;5095851;28;20032;-44
2023/10/03 04:05:40;;;;;;;10.27;6.00;;;;;;;22.03;69.37;99121.91;5095627;28;20031;-44
2023/10/03 04:08:07;;;;;;;9.50;6.30;;;;;;;22.09;68.65;99117.38;5095649;28;20559;-45
2023/10/03 04:10:36;;;;;;;8.98;6.00;;;;;;;22.10;67.70;99124.34;5095585;28;20093;-44
2023/10/03 04:13:10;;;;;;;10.98;5.90;;;;;;;21.83;67.91;99120.00;5095375;28;20097;-45
2023/10/03 04:15:42;;;;;;;16.48;8.98;;;;;;;21.68;68.61;99128.78;5095710;28;20390;-44
2023/10/03 04:18:09;;;;;;;10.45;5.85;;;;;;;21.82;68.75;99120.28;5095514;28;20031;-44
2023/10/03 04:20:36;;;;;;;9.20;5.97;;;;;;;21.65;67.68;99123.97;5095406;28;20024;-44
2023/10/03 04:23:07;;;;;;;8.95;5.68;;;;;;;21.44;68.54;99117.72;5094084;28;20081;-44
2023/10/03 04:25:38;;;;;;;25.80;6.93;;;;;;;21.48;68.60;99118.81;5095353;28;20032;-44
2023/10/03 04:28:05;;;;;;;9.45;5.07;;;;;;;21.61;68.26;99117.53;5094029;28;20032;-45
2023/10/03 04:30:30;;;;;;;11.50;6.10;;;;;;;21.55;67.59;99118.59;5095238;28;20059;-44
2023/10/03 04:32:57;;;;;;;16.60;7.32;;;;;;;21.67;68.96;99121.00;5095169;28;20112;-45
2023/10/03 04:35:24;;;;;;;11.43;6.70;;;;;;;21.80;67.33;99101.81;5093744;28;20553;-44
2023/10/03 04:37:51;;;;;;;10.00;5.97;;;;;;;21.67;67.85;99104.97;5095107;28;20065;-44
2023/10/03 04:40:37;;;;;;;14.05;6.13;;;;;;;21.73;67.29;99103.94;5095063;28;20024;-45
2023/10/03 04:43:10;;;;;;;;;;;;;;;21.69;67.83;99103.69;5095816;28;20397;-44
2023/10/03 04:45:40;;;;;;;12.90;6.03;;;;;;;21.62;67.22;99100.44;5093694;28;19915;-45
2023/10/03 04:48:06;;;;;;;9.65;5.93;;;;;;;21.65;66.71;99099.09;5094862;28;20020;-44
2023/10/03 04:50:32;;;;;;;10.45;6.43;;;;;;;21.42;67.44;99087.78;5094859;28;20035;-44
2023/10/03 04:53:00;;;;;;;10.95;6.65;;;;;;;21.45;68.32;99086.47;5094739;28;20020;-44
2023/10/03 04:55:26;;;;;;;6.75;5.25;;;;;;;21.47;67.41;99089.69;5094619;28;20032;-44
2023/10/03 04:57:53;;;;;;;10.77;6.75;;;;;;;21.18;68.13;99084.75;5094984;28;20024;-45
2023/10/03 05:00:23;;;;;;;12.20;6.68;;;;;;;21.05;69.63;99090.56;5094554;28;20026;-45
2023/10/03 05:02:52;;;;;;;14.13;6.55;;;;;;;21.38;69.57;99100.06;5094597;28;20137;-44
2023/10/03 05:05:26;;;;;;;24.08;9.77;;;;;;;21.79;68.93;99102.88;5094614;28;20085;-44
2023/10/03 05:07:53;;;;;;;10.02;5.55;;;;;;;21.85;66.56;99106.38;5093160;28;20032;-44
2023/10/03 05:10:30;;;;;;;16.13;7.60;;;;;;;21.65;67.58;99109.78;5093147;28;20111;-44
2023/10/03 05:12:57;;;;;;;32.45;8.43;;;;;;;21.85;67.75;99104.53;5094273;28;20060;-44
2023/10/03 05:15:26;;;;;;;8.98;6.00;;;;;;;22.06;66.86;99104.56;5094302;28;20023;-44
2023/10/03 05:17:52;;;;;;;9.27;5.95;;;;;;;21.97;65.31;99106.91;5094376;28;20086;-44
2023/10/03 05:20:18;;;;;;;17.35;7.68;;;;;;;21.64;66.58;99095.63;5093181;28;20028;-44
2023/10/03 05:22:47;;;;;;;10.30;6.55;;;;;;;21.73;66.64;99093.25;5094248;28;20028;-44
2023/10/03 05:25:19;;;;;;;20.35;16.23;;;;;;;21.63;67.80;99094.03;5094188;28;20627;-44
2023/10/03 05:27:49;;;;;;;8.93;6.40;;;;;;;21.28;67.87;99084.78;5094162;28;20024;-44
2023/10/03 05:30:15;;;;;;;10.88;5.93;;;;;;;21.14;68.72;99089.00;5094162;28;20027;-44
2023/10/03 05:32:45;;;;;;;9.65;6.07;;;;;;;20.97;68.99;99097.19;5093999;28;20040;-44
2023/10/03 05:35:12;;;;;;;8.38;4.97;;;;;;;20.91;70.18;99103.56;5092756;28;20023;-44
2023/10/03 05:37:40;;;;;;;9.80;6.85;;;;;;;20.78;70.24;99104.81;5093932;28;20101;-44
2023/10/03 05:40:15;;;;;;;22.92;8.85;;;;;;;20.86;71.81;99103.53;5093930;28;20013;-44
2023/10/03 05:42:47;;;;;;;13.73;6.97;;;;;;;21.13;70.06;99112.22;5093856;28;20109;-44
2023/10/03 05:45:13;;;;;;;15.10;7.13;;;;;;;21.26;69.84;99118.94;5093935;28;20052;-44
2023/10/03 05:47:40;;;;;;;16.33;7.75;;;;;;;21.37;69.78;99116.31;5075710;28;20024;-44
2023/10/03 05:50:09;;;;;;;21.38;7.93;;;;;;;21.90;69.00;99128.56;5092685;28;20020;-44
2023/10/03 05:52:35;;;;;;;22.00;7.72;;;;;;;22.26;67.54;99127.88;5093740;28;20020;-44
2023/10/03 05:55:01;;;;;;;13.48;6.45;;;;;;;22.42;66.00;99129.47;5093681;28;20020;-45
2023/10/03 05:57:26;;;;;;;40.45;10.05;;;;;;;22.71;65.68;99134.28;5093580;28;20077;-45
2023/10/03 05:59:52;;;;;;;12.65;6.72;;;;;;;23.09;64.31;99148.16;5093484;28;20047;-45
2023/10/03 06:02:17;;;;;;;12.88;7.13;;;;;;;23.40;62.78;99154.25;5093512;28;20024;-44
2023/10/03 06:04:43;;;;;;;14.77;7.55;;;;;;;23.31;61.68;99154.00;5093437;28;20023;-45
2023/10/03 06:07:09;;;;;;;10.90;6.88;;;;;;;23.23;62.34;99145.72;5092105;28;20036;-44
2023/10/03 06:09:35;;;;;;;8.48;6.53;;;;;;;23.09;61.76;99150.84;5093447;28;20027;-44
2023/10/03 06:12:01;;;;;;;25.40;8.05;;;;;;;22.87;63.09;99153.78;5091258;28;20052;-45
2023/10/03 06:14:27;;;;;;;15.98;7.97;;;;;;;23.40;62.22;99162.28;5091924;28;20118;-45
2023/10/03 06:16:52;;;;;;;21.13;8.35;;;;;;;23.87;60.84;99163.72;5093101;28;20029;-44
2023/10/03 06:19:18;;;;;;;14.57;7.40;;;;;;;24.47;59.32;99165.50;5093166;28;20032;-45
2023/10/03 06:21:46;;;;;;;65.25;59.60;;;;;;;24.99;56.90;99166.69;5093121;28;20050;-45
2023/10/03 06:24:13;;;;;;;22.92;9.75;;;;;;;25.50;55.66;99159.97;5093354;28;20426;-44
2023/10/03 06:26:41;;;;;;;23.42;7.90;;;;;;;25.94;54.32;99158.91;5093035;28;20103;-45
2023/10/03 06:29:07;;;;;;;17.05;7.03;;;;;;;26.45;52.59;99155.44;5092984;28;20501;-45
2023/10/03 06:31:32;;;;;;;23.63;7.20;;;;;;;26.36;52.30;99156.41;5092899;28;20103;-45
2023/10/03 06:34:00;;;;;;;6.13;5.53;;;;;;;25.85;51.94;99174.03;5091579;28;20024;-45
2023/10/03 06:36:26;;;;;;;9.35;5.28;;;;;;;25.22;54.07;99167.81;5092708;28;20012;-45
2023/10/03 06:38:52;;;;;;;6.28;4.50;;;;;;;24.92;54.81;99166.19;5092731;28;20089;-45
2023/10/03 06:41:21;;;;;;;18.27;7.65;;;;;;;24.48;56.57;99175.91;5092723;28;20390;-45
2023/10/03 06:43:48;;;;;;;22.23;8.25;;;;;;;24.63;57.27;99177.72;5092970;28;20035;-44
2023/10/03 06:46:15;;;;;;;17.50;7.18;;;;;;;24.79;56.43;99180.28;5092613;28;20106;-45
2023/10/03 06:48:43;;;;;;;7.25;5.22;;;;;;;25.04;55.33;99169.31;5092459;28;20038;-45
2023/10/03 06:51:09;;;;;;;7.75;5.07;;;;;;;25.40;54.62;99173.53;5091223;28;20020;-45
2023/10/03 06:53:35;;;;;;;20.40;6.75;;;;;;;25.67;53.77;99171.03;5092775;28;20020;-45
2023/10/03 06:56:01;;;;;;;6.18;4.90;;;;;;;26.08;52.73;99173.22;5092659;28;20031;-45
2023/10/03 06:58:27;;;;;;;8.90;5.28;;;;;;;26.27;51.71;99183.97;5091086;28;20016;-45
2023/10/03 07:00:56;;;;;;;9.45;4.95;;;;;;;26.48;51.60;99184.47;5092369;28;20021;-45
2023/10/03 07:03:23;;;;;;;8.18;4.88;;;;;;;26.99;50.20;99190.13;5092282;28;20016;-45
2023/10/03 07:05:48;;;;;;;7.15;4.63;;;;;;;27.55;48.72;99191.81;5092288;28;20035;-45
2023/10/03 07:08:14;;;;;;;8.55;5.22;;;;;;;28.07;46.83;99192.34;5091086;28;20024;-45
2023/10/03 07:10:42;;;;;;;6.30;5.05;;;;;;;28.38;46.08;99188.16;5090949;28;20024;-45
2023/10/03 07:13:10;;;;;;;23.92;8.20;;;;;;;28.90;45.62;99182.31;5095993;28;20574;-45
2023/10/03 07:15:35;;;;;;;6.72;4.47;;;;;;;29.67;42.86;99189.16;5092374;28;20055;-45
2023/10/03 07:18:04;;;;;;;7.97;4.72;;;;;;;29.59;42.58;99182.63;5091097;28;20505;-45
2023/10/03 07:20:30;;;;;;;10.00;4.93;;;;;;;29.45;42.54;99188.13;5091036;28;20028;-45
2023/10/03 07:22:56;;;;;;;8.80;5.05;;;;;;;29.32;42.35;99183.66;5091209;28;20029;-45
2023/10/03 07:25:21;;;;;;;6.85;5.20;;;;;;;28.76;43.27;99198.63;5091945;28;20482;-45
2023/10/03 07:27:48;;;;;;;7.50;5.07;;;;;;;28.44;44.40;99192.31;5092030;28;20037;-45
2023/10/03 07:30:15;;;;;;;8.15;4.53;;;;;;;28.68;44.01;99197.44;5092205;28;20043;-45
2023/10/03 07:32:41;;;;;;;13.40;6.20;;;;;;;28.86;43.48;99201.06;5090647;28;20570;-45
2023/10/03 07:35:11;;;;;;;12.70;6.28;;;;;;;29.65;42.72;99199.50;5090554;28;20447;-45
2023/10/03 07:37:39;;;;;;;5.85;4.57;;;;;;;30.21;40.69;99210.59;5092061;28;20399;-45
2023/10/03 07:40:07;;;;;;;9.02;4.57;;;;;;;30.44;40.33;99205.84;5091732;28;20565;-45
2023/10/03 07:42:32;;;;;;;6.15;4.72;;;;;;;30.89;39.63;99201.97;5092010;28;20024;-45
2023/10/03 07:44:58;;;;;;;11.93;4.82;;;;;;;31.20;38.50;99186.22;5092131;28;20581;-46
2023/10/03 07:47:24;;;;;;;11.60;5.75;;;;;;;30.89;38.92;99202.78;5091747;28;20448;-45
2023/10/03 07:49:51;;;;;;;13.40;4.80;;;;;;;31.17;39.12;99208.59;5091726;28;20431;-45
2023/10/03 07:52:17;;;;;;;18.25;5.78;;;;;;;31.39;38.58;99195.88;5091761;28;20027;-45
2023/10/03 07:54:55;;;;;;;20.20;6.05;;;;;;;31.56;38.44;99197.75;5091668;28;20024;-46
2023/10/03 07:57:25;;;;;;;14.00;5.45;;;;;;;32.00;37.97;99215.38;5091590;28;20024;-46
2023/10/03 07:59:52;;;;;;;26.10;5.60;;;;;;;32.32;36.83;99218.50;5091622;28;20169;-45
2023/10/03 08:02:18;;;;;;;17.13;5.50;;;;;;;32.15;37.02;99216.69;5090302;28;20043;-45
2023/10/03 08:04:46;;;;;;;8.32;4.82;;;;;;;32.35;36.35;99219.75;5091660;28;20085;-45
2023/10/03 08:07:21;;;;;;;18.63;6.32;;;;;;;31.86;36.91;99212.09;5090372;28;20044;-45
2023/10/03 08:09:48;;;;;;;23.48;7.97;;;;;;;31.22;38.38;99221.97;5091671;28;20065;-45
2023/10/03 08:12:22;;;;;;;14.02;5.35;;;;;;;31.82;37.89;99230.97;5091239;28;20040;-46
2023/10/03 08:14:51;;;;;;;11.52;5.35;;;;;;;33.12;36.05;99231.06;5091635;28;20028;-46
2023/10/03 08:17:19;;;;;;;15.90;6.03;;;;;;;33.56;34.73;99231.28;5091501;28;20024;-45
2023/10/03 08:19:45;;;;;;;12.25;4.32;;;;;;;33.21;35.06;99231.72;5090342;28;20103;-45
2023/10/03 08:22:14;;;;;;;16.85;6.45;;;;;;;33.33;35.29;99232.88;5091424;28;20024;-46
2023/10/03 08:24:43;;;;;;;13.10;5.40;;;;;;;33.96;34.16;99233.31;5091422;28;20070;-45
2023/10/03 08:27:18;;;;;;;12.75;5.40;;;;;;;34.46;33.47;99238.66;5091690;28;20024;-46
2023/10/03 08:29:57;;;;;;;29.02;6.13;;;;;;;34.42;32.73;99220.25;5091421;28;20032;-46
2023/10/03 08:32:25;;;;;;;10.75;3.85;;;;;;;33.82;33.42;99246.50;5091365;28;20028;-46
2023/10/03 08:34:53;;;;;;;7.03;4.70;;;;;;;33.14;34.45;99257.88;5094337;28;20012;-45
2023/10/03 08:37:22;;;;;;;11.95;4.78;;;;;;;33.33;34.84;99249.22;5095043;28;20107;-45
2023/10/03 08:39:51;;;;;;;11.15;4.63;;;;;;;33.47;34.23;99263.28;5095335;28;20443;-46
2023/10/03 08:42:35;;;;;;;8.80;4.57;;;;;;;33.59;34.08;99248.88;5094936;28;20107;-46
2023/10/03 08:45:22;;;;;;;8.45;4.22;;;;;;;33.98;33.70;99261.00;5095287;28;20036;-46
2023/10/03 08:47:53;;;;;;;7.93;4.30;;;;;;;33.61;33.66;99277.38;5095010;28;20085;-46
2023/10/03 08:50:29;;;;;;;7.50;4.03;;;;;;;33.03;34.84;99257.50;5093560;28;20187;-45
2023/10/03 08:53:12;;;;;;;20.23;7.10;;;;;;;33.36;35.14;99264.84;5094810;28;20028;-45
2023/10/03 08:55:43;;;;;;;11.68;6.55;;;;;;;34.89;32.62;99267.13;5093459;28;20081;-46
2023/10/03 08:58:13;;;;;;;21.65;5.72;;;;;;;35.12;32.03;99272.78;5094739;28;20024;-46
2023/10/03 09:00:45;;;;;;;11.77;5.75;;;;;;;34.73;32.21;99254.25;5094585;28;20017;-46
2023/10/03 09:03:15;;;;;;;8.23;4.28;;;;;;;34.72;32.50;99268.22;5093505;28;20061;-46
2023/10/03 09:05:42;;;;;;;13.20;5.47;;;;;;;34.84;32.14;99270.91;5094800;28;20050;-46
2023/10/03 09:08:09;;;;;;;6.00;4.00;;;;;;;34.88;32.11;99263.59;5094465;28;20020;-46
2023/10/03 09:10:55;;;;;;;6.43;4.50;;;;;;;35.10;31.09;99269.63;5094544;28;20078;-46
2023/10/03 09:13:27;;;;;;;9.15;4.35;;;;;;;34.51;31.96;99263.75;5094260;28;20097;-46
2023/10/03 09:16:02;;;;;;;13.13;5.10;;;;;;;34.19;33.44;99271.00;5094231;28;20016;-45
2023/10/03 09:18:30;;;;;;;9.90;4.13;;;;;;;34.76;32.40;99263.66;5094338;28;20085;-46
2023/10/03 09:20:59;;;;;;;8.98;4.78;;;;;;;34.64;32.65;99266.44;5094570;28;20023;-46
2023/10/03 09:23:27;;;;;;;8.60;4.32;;;;;;;34.96;32.01;99270.03;5094242;28;20035;-45
2023/10/03 09:25:56;;;;;;;4.90;4.03;;;;;;;34.75;32.24;99273.78;5094400;28;20055;-46
2023/10/03 09:28:35;;;;;;;12.77;4.68;;;;;;;35.04;32.11;99265.56;5094354;28;20106;-46
2023/10/03 09:31:13;;;;;;;7.40;4.63;;;;;;;35.06;31.47;99261.34;5094153;28;20393;-45
2023/10/03 09:33:39;;;;;;;6.55;4.30;;;;;;;34.80;32.16;99276.25;5094150;28;20110;-46
2023/10/03 09:36:06;;;;;;;7.82;4.45;;;;;;;34.73;32.30;99273.34;5093850;28;20016;-46
2023/10/03 09:38:45;;;;;;;6.55;4.22;;;;;;;34.73;32.15;99276.06;5093979;28;20028;-46
2023/10/03 09:41:21;;;;;;;11.13;4.30;;;;;;;34.23;32.47;99277.34;5093938;28;20016;-46
2023/10/03 09:43:54;;;;;;;7.22;4.25;;;;;;;33.76;32.96;99270.44;5093838;28;20036;-45
2023/10/03 09:46:24;;;;;;;7.22;4.00;;;;;;;33.32;34.00;99275.59;5093048;28;20070;-46
2023/10/03 09:48:53;;;;;;;16.75;4.38;;;;;;;33.09;34.16;99280.66;5093763;28;20107;-46
2023/10/03 09:51:36;;;;;;;15.13;4.78;;;;;;;32.78;34.27;99275.66;5093703;28;20104;-45
2023/10/03 09:54:10;;;;;;;13.07;4.88;;;;;;;32.16;35.12;99278.06;5093712;28;20409;-46
2023/10/03 09:56:40;;;;;;;;;;;;;;;31.79;35.66;99276.97;5093976;28;20081;-46
2023/10/03 09:59:07;;;;;;;12.15;4.93;;;;;;;31.56;36.42;99285.38;5093466;28;19916;-51
2023/10/03 10:01:35;;;;;;;4.95;4.20;;;;;;;31.69;36.04;99283.53;5093498;28;20117;-45
2023/10/03 10:04:07;;;;;;;8.60;4.25;;;;;;;31.70;36.10;99295.22;5093458;28;20024;-46
2023/10/03 10:06:52;;;;;;;5.93;3.90;;;;;;;31.81;36.34;99283.66;5093463;28;20103;-45
2023/10/03 10:09:35;;;;;;;6.95;4.25;;;;;;;31.63;36.82;99290.28;5093307;28;20024;-46
2023/10/03 10:12:14;;;;;;;8.00;4.85;;;;;;;32.20;36.34;99289.84;5093104;28;20055;-46
2023/10/03 10:15:01;;;;;;;19.23;5.05;;;;;;;33.21;35.06;99298.94;5093537;28;20020;-45
2023/10/03 10:17:49;;;;;;;10.15;4.03;;;;;;;34.29;33.41;99292.31;5093093;28;20501;-46
2023/10/03 10:20:38;;;;;;;10.95;5.28;;;;;;;34.73;32.48;99286.97;5093110;28;20493;-45
2023/10/03 10:23:22;;;;;;;9.48;4.15;;;;;;;35.56;31.20;99294.59;5091866;28;20089;-46
2023/10/03 10:25:51;;;;;;;4.93;3.67;;;;;;;36.31;29.91;99292.81;5093116;28;20467;-46
2023/10/03 10:28:23;;;;;;;5.28;3.63;;;;;;;36.06;29.39;99289.50;5092943;28;20055;-46
2023/10/03 10:31:10;;;;;;;8.88;3.00;;;;;;;35.51;30.02;99298.34;5093010;28;20494;-46
2023/10/03 10:33:36;;;;;;;5.55;3.28;;;;;;;34.75;31.10;99298.34;5092925;28;20024;-46
2023/10/03 10:36:10;;;;;;;7.55;3.92;;;;;;;34.07;31.98;99298.22;5093016;28;20027;-46
2023/10/03 10:38:35;;;;;;;9.68;3.95;;;;;;;34.25;31.80;99302.31;5092855;28;20501;-46
2023/10/03 10:41:31;;;;;;;5.88;3.33;;;;;;;34.22;31.85;99283.91;5092823;28;20101;-46
2023/10/03 10:44:21;;;;;;;4.90;3.17;;;;;;;34.49;31.22;99298.75;5092881;28;20393;-46
2023/10/03 10:46:51;;;;;;;7.72;3.70;;;;;;;34.42;31.32;99285.69;5092808;28;20024;-46
2023/10/03 10:49:36;;;;;;;6.20;4.10;;;;;;;34.28;32.13;99290.72;5092986;28;20055;-46
2023/10/03 10:52:06;;;;;;;9.98;4.38;;;;;;;34.64;31.61;99297.19;5092882;28;20028;-46
2023/10/03 10:54:42;;;;;;;6.25;3.38;;;;;;;34.50;31.54;99297.59;5091316;28;20027;-46
2023/10/03 10:57:21;;;;;;;12.95;4.00;;;;;;;34.22;32.21;99289.38;5092215;28;20016;-46
2023/10/03 10:59:47;;;;;;;9.85;5.15;;;;;;;34.76;32.02;99301.84;5092466;28;20035;-45
2023/10/03 11:02:27;;;;;;;4.82;3.40;;;;;;;35.99;30.75;99299.13;5092382;28;20028;-46
2023/10/03 11:04:59;;;;;;;5.93;3.30;;;;;;;36.71;29.18;99297.97;5092372;28;20036;-46
2023/10/03 11:07:27;;;;;;;8.07;3.53;;;;;;;36.54;27.71;99301.09;5092577;28;20051;-46
2023/10/03 11:09:55;;;;;;;7.15;3.90;;;;;;;35.65;29.21;99305.31;5092299;28;20119;-46
2023/10/03 11:12:25;;;;;;;7.03;4.57;;;;;;;35.51;30.17;99309.28;5091917;28;20051;-47
2023/10/03 11:14:52;;;;;;;7.95;4.22;;;;;;;35.57;30.24;99288.75;5092144;28;20035;-47
2023/10/03 11:17:19;;;;;;;10.02;4.45;;;;;;;35.60;30.04;99281.81;5092002;28;20020;-45
2023/10/03 11:19:47;;;;;;;8.07;3.53;;;;;;;35.59;29.50;99297.38;5092147;28;20027;-46
2023/10/03 11:22:13;;;;;;;8.43;4.28;;;;;;;35.46;29.52;99285.00;5073904;28;20032;-46
2023/10/03 11:24:40;;;;;;;7.63;3.75;;;;;;;34.70;31.12;99298.56;5074202;28;20099;-46
2023/10/03 11:27:06;;;;;;;5.70;2.97;;;;;;;34.45;31.31;99297.03;5091900;28;20066;-46
2023/10/03 11:29:46;;;;;;;4.25;3.22;;;;;;;34.53;31.85;99305.09;5091958;28;20066;-46
2023/10/03 11:32:32;;;;;;;7.97;4.10;;;;;;;34.17;31.37;99293.13;5091894;28;20039;-46
2023/10/03 11:35:12;;;;;;;11.73;3.95;;;;;;;33.96;32.27;99287.78;5090696;28;20397;-46
2023/10/03 11:37:43;;;;;;;6.88;3.55;;;;;;;34.30;32.31;99285.72;5091842;28;20032;-46
2023/10/03 11:40:15;;;;;;;9.63;4.90;;;;;;;34.65;31.94;99287.06;5091507;28;20028;-46
2023/10/03 11:42:57;;;;;;;11.80;4.95;;;;;;;35.45;30.96;99285.34;5091650;28;20085;-46
2023/10/03 11:45:26;;;;;;;6.53;3.80;;;;;;;36.00;29.68;99280.81;5091531;28;20024;-46
2023/10/03 11:48:17;;;;;;;9.77;4.40;;;;;;;36.39;28.82;99289.09;5091706;28;20024;-46